Atlanta, New York
Current Conditions -  °F | °C
As of 12:54 AM on Friday 31 Oct 2014 (Local Time) from KDSV Reporting Station
Overcast Overcast  
Wind Chill: 36°   Ceiling: 4600
Heat Index: 41°   Visibility: 10mi
Dew Point: 35°   Wind: 7mph
Humidity: 79%   Direction: 130°SE
Pressure: 30.03"   Gusts: NA
Location:  42.55°N, 77.47°W
Report Text: KDSV 310454Z AUTO 13006KT 10SM OVC046 05/02 A3003 RMK AO2 SLP180 T00500017 401000044
Loading
Personal Weather Stations






























Interactive Weather Map
Tropical Storm Tracking
New forecast layout! Learn more

10-Day Weather Forecast

Advertisements
Track Severe Weather on mobile